createdAt,value
2022-12-17T00:00:28.491Z,40.67
2022-12-17T00:03:17.507Z,39.40
2022-12-17T00:06:03.625Z,41.93
2022-12-17T00:08:49.250Z,42.27
2022-12-17T00:11:34.428Z,40.43
2022-12-17T00:14:20.087Z,40.87
2022-12-17T00:17:05.879Z,40.67
2022-12-17T00:19:52.651Z,38.93
2022-12-17T00:22:41.786Z,40.50
2022-12-17T00:25:24.261Z,40.33
2022-12-17T00:28:09.921Z,38.97
2022-12-17T00:30:55.489Z,39.83
2022-12-17T00:33:40.987Z,39.80
2022-12-17T00:36:28.021Z,43.17
2022-12-17T00:39:18.976Z,42.60
2022-12-17T00:42:04.713Z,41.60
2022-12-17T00:44:50.404Z,40.23
2022-12-17T00:47:35.918Z,40.73
2022-12-17T00:50:21.587Z,42.17
2022-12-17T00:53:11.116Z,39.70
2022-12-17T00:56:05.531Z,42.17
2022-12-17T00:58:51.139Z,41.50
2022-12-17T01:01:37.623Z,40.80
2022-12-17T01:04:23.775Z,41.40
2022-12-17T01:07:14.512Z,41.13
2022-12-17T01:10:12.629Z,39.40
2022-12-17T01:12:58.331Z,39.37
2022-12-17T01:15:43.996Z,39.10
2022-12-17T01:18:36.370Z,41.37
2022-12-17T01:21:22.223Z,40.37
2022-12-17T01:24:18.993Z,39.97
2022-12-17T01:27:06.335Z,42.13
2022-12-17T01:29:52.254Z,40.77
2022-12-17T01:32:37.581Z,40.20
2022-12-17T01:35:38.339Z,41.07
2022-12-17T01:38:29.462Z,38.77
2022-12-17T01:41:15.219Z,40.23
2022-12-17T01:44:02.629Z,40.13
2022-12-17T01:46:51.732Z,37.47
2022-12-17T01:49:54.411Z,39.73
2022-12-17T01:52:39.998Z,38.47
2022-12-17T01:55:26.038Z,39.33
2022-12-17T01:58:11.577Z,38.90
2022-12-17T02:00:58.270Z,40.53
2022-12-17T02:03:44.116Z,39.43
2022-12-17T02:06:35.759Z,40.60
2022-12-17T02:09:29.867Z,39.70
2022-12-17T02:12:22.342Z,39.83
2022-12-17T02:15:17.699Z,39.57
2022-12-17T02:18:09.859Z,39.13
2022-12-17T02:21:00.707Z,40.30
2022-12-17T02:23:56.504Z,39.97
2022-12-17T02:26:54.501Z,40.63
2022-12-17T02:29:42.346Z,39.10
2022-12-17T02:32:29.367Z,40.43
2022-12-17T02:35:16.390Z,40.40
2022-12-17T02:38:05.240Z,42.20
2022-12-17T02:40:52.668Z,38.83
2022-12-17T02:43:42.086Z,41.37
2022-12-17T02:46:28.829Z,39.50
2022-12-17T02:49:14.226Z,39.43
2022-12-17T02:52:01.187Z,39.57
2022-12-17T02:54:48.422Z,39.23
2022-12-17T02:57:34.152Z,41.93
2022-12-17T03:00:21.014Z,38.43
2022-12-17T03:03:06.722Z,38.70
2022-12-17T03:05:51.973Z,38.00
2022-12-17T03:08:37.604Z,37.63
2022-12-17T03:11:23.038Z,38.40
2022-12-17T03:14:08.658Z,38.77
2022-12-17T03:16:57.785Z,37.97
2022-12-17T03:19:43.441Z,39.27
2022-12-17T03:22:28.684Z,38.17
2022-12-17T03:25:14.461Z,38.30
2022-12-17T03:27:58.869Z,38.73
2022-12-17T03:30:48.900Z,40.10
2022-12-17T03:33:36.285Z,38.33
2022-12-17T03:36:22.303Z,40.57
2022-12-17T03:39:07.977Z,39.93
2022-12-17T03:41:53.616Z,38.90
2022-12-17T03:44:38.904Z,39.13
2022-12-17T03:47:24.360Z,40.33
2022-12-17T03:50:11.445Z,38.80
2022-12-17T03:52:56.792Z,40.23
2022-12-17T03:55:42.274Z,38.90
2022-12-17T03:58:27.722Z,39.70
2022-12-17T04:01:13.235Z,39.43
2022-12-17T04:03:58.596Z,37.83
2022-12-17T04:06:45.601Z,37.77
2022-12-17T04:09:31.241Z,37.10
2022-12-17T04:12:15.932Z,40.63
2022-12-17T04:15:01.817Z,39.77
2022-12-17T04:17:47.408Z,40.53
2022-12-17T04:20:32.836Z,38.73
2022-12-17T04:23:19.764Z,40.20
2022-12-17T04:26:05.161Z,39.40
2022-12-17T04:28:50.874Z,40.70
2022-12-17T04:31:36.917Z,38.10
2022-12-17T04:34:22.208Z,40.10
2022-12-17T04:37:07.590Z,37.90
2022-12-17T04:39:54.379Z,39.20
2022-12-17T04:42:39.702Z,40.23
2022-12-17T04:45:26.100Z,39.37
2022-12-17T04:48:19.770Z,39.77
2022-12-17T04:51:04.920Z,39.33
2022-12-17T04:53:50.565Z,38.90
2022-12-17T04:56:37.349Z,39.60
2022-12-17T04:59:22.846Z,38.13
2022-12-17T05:02:08.547Z,39.20
2022-12-17T05:04:54.020Z,39.27
2022-12-17T05:07:39.558Z,38.50
2022-12-17T05:10:25.655Z,41.00
2022-12-17T05:13:17.040Z,40.13
2022-12-17T05:16:02.631Z,39.50
2022-12-17T05:18:48.006Z,39.47
2022-12-17T05:21:33.749Z,37.40
2022-12-17T05:24:19.085Z,38.07
2022-12-17T05:27:04.760Z,38.07
2022-12-17T05:29:51.651Z,38.60
2022-12-17T05:32:37.304Z,37.97
2022-12-17T05:35:23.319Z,37.37
2022-12-17T05:38:08.952Z,39.33
2022-12-17T05:40:54.583Z,40.43
2022-12-17T05:43:40.263Z,40.17
2022-12-17T05:46:27.279Z,38.00
2022-12-17T05:49:13.052Z,39.47
2022-12-17T05:51:58.414Z,40.00
2022-12-17T05:54:44.037Z,40.53
2022-12-17T05:57:29.483Z,40.70
2022-12-17T06:00:15.008Z,41.23
2022-12-17T06:03:01.897Z,42.07
2022-12-17T06:05:47.195Z,40.80
2022-12-17T06:08:32.896Z,40.97
2022-12-17T06:11:18.979Z,41.40
2022-12-17T06:14:05.389Z,43.20
2022-12-17T06:16:50.639Z,43.97
2022-12-17T06:19:37.324Z,44.47
2022-12-17T06:22:22.903Z,42.60
2022-12-17T06:25:08.673Z,44.70
2022-12-17T06:27:54.059Z,45.53
2022-12-17T06:30:39.598Z,45.80
2022-12-17T06:33:25.857Z,46.23
2022-12-17T06:36:21.313Z,50.37
2022-12-17T06:39:07.620Z,49.17
2022-12-17T06:41:53.094Z,47.13
2022-12-17T06:44:57.389Z,50.33
2022-12-17T06:47:42.883Z,47.97
2022-12-17T06:50:28.700Z,47.70
2022-12-17T06:53:19.655Z,46.00
2022-12-17T06:56:05.178Z,46.13
2022-12-17T06:58:50.921Z,48.33
2022-12-17T07:01:37.083Z,44.90
2022-12-17T07:04:31.041Z,47.70
2022-12-17T07:07:18.104Z,46.10
2022-12-17T07:10:13.700Z,48.50
2022-12-17T07:12:59.417Z,50.23
2022-12-17T07:15:45.130Z,51.57
2022-12-17T07:18:30.837Z,47.03
2022-12-17T07:21:16.441Z,48.30
2022-12-17T07:24:02.124Z,48.07
2022-12-17T07:26:49.797Z,48.70
2022-12-17T07:29:35.163Z,49.17
2022-12-17T07:32:20.434Z,48.20
2022-12-17T07:35:14.131Z,50.27
2022-12-17T07:37:59.782Z,48.43
2022-12-17T07:40:45.432Z,47.90
2022-12-17T07:43:33.663Z,48.30
2022-12-17T07:46:19.371Z,52.33
2022-12-17T07:49:05.205Z,51.30
2022-12-17T07:51:50.879Z,48.60
2022-12-17T07:54:36.421Z,50.60
2022-12-17T07:57:21.987Z,49.90
2022-12-17T08:00:08.570Z,47.33
2022-12-17T08:02:54.235Z,46.30
2022-12-17T08:05:39.637Z,49.00
2022-12-17T08:08:28.725Z,52.20
2022-12-17T08:11:14.068Z,51.47
2022-12-17T08:13:59.810Z,48.40
2022-12-17T08:16:46.474Z,49.00
2022-12-17T08:19:32.430Z,51.20
2022-12-17T08:22:17.720Z,51.17
2022-12-17T08:25:03.199Z,54.43
2022-12-17T08:27:49.344Z,53.93
2022-12-17T08:30:35.107Z,53.47
2022-12-17T08:33:22.918Z,54.20
2022-12-17T08:36:11.974Z,54.57
2022-12-17T08:38:57.523Z,53.63
2022-12-17T08:41:42.832Z,53.63
2022-12-17T08:44:28.298Z,52.57
2022-12-17T08:47:13.905Z,52.67
2022-12-17T08:50:05.897Z,51.53
2022-12-17T08:52:51.686Z,55.43
2022-12-17T08:55:37.219Z,56.87
2022-12-17T08:58:22.634Z,52.93
2022-12-17T09:01:08.368Z,53.03
2022-12-17T09:03:53.722Z,54.63
2022-12-17T09:06:40.411Z,55.33
2022-12-17T09:09:40.250Z,56.00
2022-12-17T09:12:25.793Z,55.33
2022-12-17T09:15:11.239Z,57.77
2022-12-17T09:17:56.899Z,58.90
2022-12-17T09:20:42.417Z,58.07
2022-12-17T09:23:33.715Z,52.33
2022-12-17T09:26:19.392Z,52.03
2022-12-17T09:29:04.759Z,53.50
2022-12-17T09:31:51.680Z,54.80
2022-12-17T09:34:37.339Z,53.97
2022-12-17T09:37:23.373Z,53.83
2022-12-17T09:40:10.292Z,52.30
2022-12-17T09:43:03.003Z,55.40
2022-12-17T09:45:54.943Z,54.97
2022-12-17T09:48:47.603Z,55.13
2022-12-17T09:51:40.214Z,53.00
2022-12-17T09:54:33.830Z,52.30
2022-12-17T09:57:20.986Z,55.90
2022-12-17T10:00:06.578Z,50.83
2022-12-17T10:02:54.834Z,53.50
2022-12-17T10:05:44.241Z,54.13
2022-12-17T10:08:33.486Z,57.53
2022-12-17T10:11:34.571Z,52.97
2022-12-17T10:14:22.675Z,50.97
2022-12-17T10:17:11.885Z,53.23
2022-12-17T10:20:00.179Z,53.90
2022-12-17T10:22:46.056Z,52.87
2022-12-17T10:25:46.577Z,50.77
2022-12-17T10:28:33.858Z,54.93
2022-12-17T10:31:25.870Z,54.67
2022-12-17T10:34:14.797Z,54.43
2022-12-17T10:37:04.720Z,55.77
2022-12-17T10:39:50.749Z,56.30
2022-12-17T10:42:41.591Z,53.80
2022-12-17T10:45:42.313Z,52.27
2022-12-17T10:48:40.602Z,54.97
2022-12-17T10:51:38.624Z,54.00
2022-12-17T10:54:33.858Z,53.37
2022-12-17T10:57:19.967Z,53.70
2022-12-17T11:00:05.974Z,51.10
2022-12-17T11:02:51.065Z,52.73
2022-12-17T11:05:44.169Z,51.83
2022-12-17T11:08:32.174Z,48.50
2022-12-17T11:11:21.531Z,50.27
2022-12-17T11:14:09.465Z,49.47
2022-12-17T11:17:01.050Z,52.17
2022-12-17T11:19:56.785Z,53.60
2022-12-17T11:22:49.599Z,53.30
2022-12-17T11:25:51.749Z,53.63
2022-12-17T11:28:41.635Z,51.33
2022-12-17T11:31:45.588Z,53.87
2022-12-17T11:34:40.598Z,51.83
2022-12-17T11:37:34.199Z,50.00
2022-12-17T11:40:35.785Z,52.27
2022-12-17T11:43:30.522Z,51.47
2022-12-17T11:46:25.587Z,51.73
2022-12-17T11:49:18.493Z,50.47
2022-12-17T11:52:12.222Z,47.77
2022-12-17T11:55:05.926Z,51.40
2022-12-17T11:58:00.568Z,52.10
2022-12-17T12:00:46.090Z,48.10
2022-12-17T12:03:47.657Z,48.67
2022-12-17T12:06:42.275Z,47.90
2022-12-17T12:09:34.786Z,52.67
2022-12-17T12:12:25.882Z,50.13
2022-12-17T12:15:22.931Z,52.43
2022-12-17T12:18:14.679Z,52.40
2022-12-17T12:21:19.258Z,59.33
2022-12-17T12:24:14.858Z,63.70
2022-12-17T12:27:07.980Z,58.67
2022-12-17T12:30:01.252Z,60.57
2022-12-17T12:33:12.052Z,58.77
2022-12-17T12:35:59.056Z,54.53
2022-12-17T12:38:49.366Z,54.47
2022-12-17T12:41:49.999Z,56.70
2022-12-17T12:44:40.578Z,51.67
2022-12-17T12:47:29.573Z,55.03
2022-12-17T12:50:24.301Z,54.67
2022-12-17T12:53:10.031Z,56.90
2022-12-17T12:55:57.111Z,60.40
2022-12-17T12:58:48.317Z,62.80
2022-12-17T13:01:34.690Z,64.77
2022-12-17T13:04:32.964Z,67.00
2022-12-17T13:07:02.315Z,60.63
2022-12-17T13:09:39.847Z,60.87
2022-12-17T13:12:29.846Z,58.57
2022-12-17T13:15:16.824Z,61.73
2022-12-17T13:17:56.199Z,63.20
2022-12-17T13:20:30.853Z,62.40
2022-12-17T13:23:30.138Z,59.43
2022-12-17T13:26:16.099Z,59.73
2022-12-17T13:28:49.101Z,59.93
2022-12-17T13:31:20.179Z,60.60
2022-12-17T13:33:52.574Z,55.90
2022-12-17T13:36:28.915Z,55.87
2022-12-17T13:39:05.058Z,53.73
2022-12-17T13:41:34.980Z,53.73
2022-12-17T13:44:05.569Z,57.03
2022-12-17T13:46:46.888Z,59.30
2022-12-17T13:49:20.212Z,57.93
2022-12-17T13:51:48.546Z,57.30
2022-12-17T13:54:20.198Z,56.33
2022-12-17T13:56:48.165Z,58.47
2022-12-17T13:59:21.278Z,58.60
2022-12-17T14:01:52.143Z,58.00
2022-12-17T14:04:23.034Z,58.63
2022-12-17T14:06:52.608Z,59.03
2022-12-17T14:09:25.143Z,61.27
2022-12-17T14:12:10.476Z,54.57
2022-12-17T14:14:40.958Z,58.13
2022-12-17T14:17:20.270Z,58.10
2022-12-17T14:19:49.947Z,56.30
2022-12-17T14:22:24.638Z,54.73
2022-12-17T14:24:54.234Z,53.60
2022-12-17T14:27:28.306Z,52.63
2022-12-17T14:29:56.932Z,57.40
2022-12-17T14:32:27.121Z,59.10
2022-12-17T14:35:00.401Z,59.30
2022-12-17T14:37:31.316Z,57.27
2022-12-17T14:40:05.230Z,58.70
2022-12-17T14:42:37.691Z,55.87
2022-12-17T14:45:08.412Z,54.03
2022-12-17T14:47:37.791Z,52.47
2022-12-17T14:50:25.130Z,49.90
2022-12-17T14:52:54.498Z,53.40
2022-12-17T14:55:26.946Z,51.50
2022-12-17T14:58:07.556Z,52.57
2022-12-17T15:00:35.862Z,55.00
2022-12-17T15:03:04.088Z,52.03
2022-12-17T15:05:32.595Z,51.17
2022-12-17T15:08:00.589Z,52.20
2022-12-17T15:10:29.912Z,54.23
2022-12-17T15:12:58.602Z,53.10
2022-12-17T15:15:26.571Z,49.20
2022-12-17T15:17:54.491Z,53.87
2022-12-17T15:20:22.881Z,55.63
2022-12-17T15:22:50.815Z,53.57
2022-12-17T15:25:20.311Z,54.17
2022-12-17T15:27:49.641Z,54.67
2022-12-17T15:30:18.799Z,52.03
2022-12-17T15:32:47.322Z,53.13
2022-12-17T15:35:15.893Z,50.53
2022-12-17T15:37:43.835Z,46.53
2022-12-17T15:40:12.518Z,48.13
2022-12-17T15:43:03.097Z,49.60
2022-12-17T15:45:35.605Z,47.87
2022-12-17T15:48:03.590Z,46.67
2022-12-17T15:50:31.731Z,47.77
2022-12-17T15:52:59.753Z,50.53
2022-12-17T15:55:27.723Z,47.57
2022-12-17T15:57:55.785Z,51.13
2022-12-17T16:00:24.431Z,50.63
2022-12-17T16:02:53.977Z,50.47
2022-12-17T16:05:22.128Z,52.53
2022-12-17T16:07:50.335Z,50.50
2022-12-17T16:10:19.061Z,49.43
2022-12-17T16:12:47.082Z,48.17
2022-12-17T16:15:15.379Z,46.43
2022-12-17T16:17:43.453Z,46.77
2022-12-17T16:20:13.519Z,46.93
2022-12-17T16:22:41.637Z,49.87
2022-12-17T16:25:10.141Z,48.93
2022-12-17T16:27:38.153Z,49.13
2022-12-17T16:30:07.203Z,51.73
2022-12-17T16:32:36.748Z,46.30
2022-12-17T16:35:05.826Z,49.57
2022-12-17T16:37:35.184Z,51.00
2022-12-17T16:40:03.175Z,46.00
2022-12-17T16:42:31.141Z,46.83
2022-12-17T16:44:59.233Z,44.60
2022-12-17T16:47:27.210Z,46.23
2022-12-17T16:49:55.171Z,46.03
2022-12-17T16:52:23.197Z,44.83
2022-12-17T16:54:52.516Z,41.67
2022-12-17T16:57:20.465Z,42.13
2022-12-17T16:59:48.436Z,40.70
2022-12-17T17:02:17.732Z,42.67
2022-12-17T17:04:45.822Z,42.10
2022-12-17T17:07:13.824Z,41.00
2022-12-17T17:09:41.812Z,42.47
2022-12-17T17:12:11.973Z,42.87
2022-12-17T17:14:40.351Z,45.63
2022-12-17T17:17:08.358Z,45.60
2022-12-17T17:19:36.336Z,43.40
2022-12-17T17:22:04.346Z,44.77
2022-12-17T17:24:32.295Z,42.63
2022-12-17T17:27:00.307Z,45.93
2022-12-17T17:29:29.615Z,45.43
2022-12-17T17:32:13.941Z,45.07
2022-12-17T17:34:42.347Z,44.10
2022-12-17T17:37:10.410Z,45.00
2022-12-17T17:39:38.385Z,48.27
2022-12-17T17:42:06.703Z,48.27
2022-12-17T17:44:36.230Z,45.43
2022-12-17T17:47:04.287Z,43.83
2022-12-17T17:49:32.333Z,43.87
2022-12-17T17:52:15.656Z,43.20
2022-12-17T17:54:43.621Z,44.27
2022-12-17T17:57:11.925Z,41.33
2022-12-17T17:59:42.780Z,42.37
2022-12-17T18:02:12.007Z,41.73
2022-12-17T18:04:40.539Z,43.30
2022-12-17T18:07:24.937Z,45.60
2022-12-17T18:09:53.553Z,43.27
2022-12-17T18:12:39.068Z,45.53
2022-12-17T18:15:18.026Z,44.80
2022-12-17T18:17:48.024Z,44.13
2022-12-17T18:20:17.118Z,42.23
2022-12-17T18:22:46.754Z,41.23
2022-12-17T18:25:15.173Z,42.40
2022-12-17T18:27:43.146Z,41.17
2022-12-17T18:30:14.470Z,42.50
2022-12-17T18:32:42.511Z,41.57
2022-12-17T18:35:11.140Z,43.83
2022-12-17T18:37:39.376Z,44.60
2022-12-17T18:40:08.851Z,44.07
2022-12-17T18:42:54.401Z,45.03
2022-12-17T18:45:23.832Z,42.10
2022-12-17T18:47:53.165Z,33.00
2022-12-17T18:50:21.851Z,33.17
2022-12-17T18:52:49.812Z,35.43
2022-12-17T18:55:17.903Z,34.63
2022-12-17T18:57:45.905Z,34.33
2022-12-17T19:00:15.510Z,34.70
2022-12-17T19:02:45.337Z,33.13
2022-12-17T19:05:13.440Z,35.10
2022-12-17T19:07:41.419Z,37.33
2022-12-17T19:10:10.383Z,36.90
2022-12-17T19:12:38.361Z,39.97
2022-12-17T19:15:07.048Z,40.30
2022-12-17T19:17:35.045Z,39.43
2022-12-17T19:20:04.877Z,37.33
2022-12-17T19:22:32.884Z,39.37
2022-12-17T19:25:00.877Z,38.80
2022-12-17T19:27:28.910Z,39.27
2022-12-17T19:29:57.180Z,38.00
2022-12-17T19:32:25.302Z,39.77
2022-12-17T19:34:53.270Z,41.10
2022-12-17T19:37:22.650Z,39.60
2022-12-17T19:39:50.613Z,37.57
2022-12-17T19:42:32.079Z,39.53
2022-12-17T19:45:05.435Z,39.27
2022-12-17T19:47:33.429Z,38.13
2022-12-17T19:50:01.408Z,41.40
2022-12-17T19:52:30.803Z,40.03
2022-12-17T19:54:58.761Z,39.07
2022-12-17T19:57:26.728Z,40.93
2022-12-17T19:59:54.699Z,38.57
2022-12-17T20:02:24.057Z,39.00
2022-12-17T20:04:53.939Z,37.90
2022-12-17T20:07:21.932Z,35.27
2022-12-17T20:09:51.240Z,38.80
2022-12-17T20:12:19.184Z,39.27
2022-12-17T20:14:47.130Z,37.70
2022-12-17T20:17:15.149Z,36.80
2022-12-17T20:19:43.661Z,37.10
2022-12-17T20:22:11.646Z,37.53
2022-12-17T20:24:39.799Z,36.50
2022-12-17T20:27:10.938Z,35.87
2022-12-17T20:29:39.026Z,37.07
2022-12-17T20:32:07.138Z,36.83
2022-12-17T20:34:35.332Z,35.63
2022-12-17T20:37:03.308Z,35.83
2022-12-17T20:39:32.238Z,36.73
2022-12-17T20:42:00.209Z,38.37
2022-12-17T20:44:29.561Z,38.70
2022-12-17T20:46:57.534Z,38.30
2022-12-17T20:49:25.574Z,36.70
2022-12-17T20:51:53.672Z,38.80
2022-12-17T20:54:21.772Z,36.93
2022-12-17T20:56:50.012Z,36.13
2022-12-17T20:59:20.082Z,36.13
2022-12-17T21:01:55.610Z,35.93
2022-12-17T21:04:24.006Z,36.50
2022-12-17T21:06:52.967Z,39.40
2022-12-17T21:09:22.556Z,36.87
2022-12-17T21:11:50.638Z,34.93
2022-12-17T21:14:20.162Z,37.70
2022-12-17T21:16:49.979Z,45.33
2022-12-17T21:19:20.202Z,41.50
2022-12-17T21:21:48.736Z,35.53
2022-12-17T21:24:16.933Z,37.47
2022-12-17T21:26:46.968Z,36.80
2022-12-17T21:29:15.817Z,36.27
2022-12-17T21:31:45.808Z,38.27
2022-12-17T21:34:17.354Z,36.87
2022-12-17T21:36:45.663Z,37.53
2022-12-17T21:39:14.957Z,36.77
2022-12-17T21:42:12.148Z,34.23
2022-12-17T21:44:40.186Z,32.10
2022-12-17T21:47:08.256Z,32.73
2022-12-17T21:49:37.625Z,34.27
2022-12-17T21:52:07.514Z,34.63
2022-12-17T21:54:38.893Z,34.07
2022-12-17T21:57:07.966Z,34.47
2022-12-17T21:59:35.932Z,31.67
2022-12-17T22:02:04.058Z,32.27
2022-12-17T22:04:32.214Z,35.63
2022-12-17T22:07:08.719Z,33.10
2022-12-17T22:10:10.701Z,32.00
2022-12-17T22:12:47.766Z,32.90
2022-12-17T22:15:15.722Z,33.70
2022-12-17T22:17:44.602Z,32.87
2022-12-17T22:20:13.455Z,32.80
2022-12-17T22:22:42.782Z,32.40
2022-12-17T22:25:12.379Z,29.83
2022-12-17T22:27:41.470Z,32.60
2022-12-17T22:30:31.474Z,32.63
2022-12-17T22:33:08.559Z,34.97
2022-12-17T22:37:04.910Z,33.33
2022-12-17T22:44:24.972Z,32.43
2022-12-17T22:44:31.913Z,33.53
2022-12-17T22:44:52.083Z,33.07
2022-12-17T22:47:21.822Z,30.60
2022-12-17T22:49:49.880Z,29.57
2022-12-17T22:52:19.047Z,30.80
2022-12-17T22:54:49.324Z,32.30
2022-12-17T22:57:35.657Z,30.43
2022-12-17T23:00:12.201Z,29.97
2022-12-17T23:02:40.747Z,28.63
2022-12-17T23:05:09.148Z,29.50
2022-12-17T23:07:37.146Z,29.20
2022-12-17T23:10:07.184Z,29.80
2022-12-17T23:12:54.865Z,30.13
2022-12-17T23:15:26.748Z,28.03
2022-12-17T23:17:56.063Z,29.40
2022-12-17T23:20:24.785Z,30.37
2022-12-17T23:22:52.778Z,29.77
2022-12-17T23:25:22.948Z,29.90
2022-12-17T23:27:51.771Z,29.97
2022-12-17T23:30:20.930Z,29.53
2022-12-17T23:32:49.105Z,28.70
2022-12-17T23:35:17.136Z,28.43
2022-12-17T23:37:45.153Z,27.97
2022-12-17T23:40:14.017Z,27.00
2022-12-17T23:42:43.404Z,28.00
2022-12-17T23:45:12.125Z,29.53
2022-12-17T23:47:41.157Z,28.57
2022-12-17T23:50:11.119Z,28.93
2022-12-17T23:52:39.721Z,27.57
2022-12-17T23:55:08.810Z,27.47
2022-12-17T23:57:36.758Z,28.30
